Historyczne dane pomiarowe

Dodano dane terminowe – wersja testowa.

Dane z okresu 1951-2019

Wersja bazy: 1.34 [2019-03-16, lista zmian], aktualizacja planowana na 2019-04-15

Dane meteo z obszaru Polski uzyskane na podstawie danych udostępnionych przez Instytut Meteorologii i Gospodarki Wodnej – Państwowy Instytut Badawczy.

 

Wybierz Datę:    

       

TemperaturaWilgotnośćWiatrCiśnienieOpadyŚniegCzas trwania zjawisk
 Stacja t tx tn tng RH VA  wxwx mslp ppp RRR   cm mm wxwxwxwxwxwxwx
1994-08-14 10.6 14.4 8.1- 68.5- 6.0 1.0---- 0.0------------
1994-08-13 14.2 17.6 11.4- 78.0- 6.7 1.0---- 0.1------------
1994-08-12 15.1 19.0 11.2- 85.5- 8.0 0.3---- 3.5------------
1994-08-11 15.0 20.0 11.7- 88.8- 4.0 0.0---- 9.0------------
1994-08-10 18.3 26.6 11.7- 81.8- 2.3 0.0---- 4.8------------
1994-08-09 16.8 22.0 13.7- 93.5- 5.3 0.3---- 8.2------------
1994-08-08 17.0 21.0 14.7- 92.8- 8.0 0.0---- 10.7------------
1994-08-07 17.9 24.1 15.2- 94.3- 7.0 0.3---- 12.9------------
1994-08-06 21.2 26.9 16.2- 59.0- 3.3 0.7---- 0.0------------
1994-08-05 20.0 30.9 11.7- 62.0- 1.3 0.3---- 0.0------------
1994-08-04 18.8 26.3 10.2- 65.8- 1.3 0.0---- 0.0------------
1994-08-03 19.2 26.3 16.7- 81.0- 6.0 0.0---- 0.0------------
1994-08-02 21.8 25.4 17.7- 59.3- 1.3 0.3---- 0.0------------
1994-08-01 25.3 32.6 20.5- 50.3- 2.7 1.7---- 0.0------------
1994-07-31 24.8 32.6 18.7- 52.5- 2.7 0.0---- 0.0------------
1994-07-30 24.0 32.5 13.7- 53.5- 3.0 0.0---- 0.0------------
1994-07-29 22.3 30.5 13.7- 60.5- 2.7 0.0---- 0.0------------
1994-07-28 21.7 30.2 14.2- 66.5- 1.7 0.3---- 0.0------------
1994-07-27 19.9 28.2 16.7- 81.0- 6.3 0.0---- 2.0------------
1994-07-26 23.3 30.4 13.7- 60.3- 3.7 0.7---- 0.0------------
1994-07-25 21.3 28.1 13.7- 61.5- 0.3 0.3---- 0.0------------
1994-07-24 18.9 27.3 10.7- 66.8- 1.0 0.0---- 0.0------------
1994-07-23 18.4 26.8 11.2- 63.5- 3.0 0.0---- 0.0------------
1994-07-22 20.0 26.5 9.7- 61.0- 0.7 0.7---- 0.0------------
1994-07-21 16.6 24.1 8.4- 70.3- 0.7 0.3---- 0.0------------
1994-07-20 15.0 21.5 7.3- 73.8- 1.3 0.0---- 0.0------------
1994-07-19 14.2 18.6 12.1- 92.8- 7.0 0.0---- 0.1------------
1994-07-18 16.8 21.8 11.2- 89.0- 6.3 0.0---- 1.7------------
1994-07-17 16.9 24.3 14.2- 96.0- 5.7 0.0---- 42.4------------
1994-07-16 19.0 24.4 13.4- 83.5- 5.3 0.0---- 0.0------------
1994-07-15 19.1 26.1 14.7- 80.0- 5.3 0.3---- 3.1------------
1994-07-14 22.9 27.2 11.5- 66.0- 4.0 0.0---- 0.0------------
1994-07-13 21.3 26.2 11.2- 60.3- 2.0 3.0---- 0.0------------
1994-07-12 18.3 23.1 11.2- 76.5- 4.7 1.7---- 0.0------------
1994-07-11 17.7 23.1 10.7- 75.0- 1.3 3.7---- 0.0------------
1994-07-10 14.4 19.5 11.2- 87.0- 2.3 1.7---- 2.0------------
1994-07-09 14.1 16.5 11.2- 86.8- 7.3 4.0---- 10.6------------
1994-07-08 11.5 12.6 9.7- 82.3- 4.0 4.7---- 0.3------------
1994-07-07 14.9 21.0 10.7- 84.8- 4.7 5.7---- 18.2------------
1994-07-06 15.2 22.5 14.2- 82.0- 2.3 1.3---- 0.0------------
1994-07-05 18.3 24.4 14.7- 78.5- 0.0 0.0---- 0.3------------
1994-07-04 22.7 28.2 13.7- 59.3- 5.0 0.0---- 0.0------------
1994-07-03 20.0 26.6 9.7- 69.5- 2.0 0.3---- 0.0------------
1994-07-02 17.3 23.6 7.3- 82.0- 2.0 0.0---- 0.0------------
1994-07-01 14.3 20.5 6.8- 87.8- 2.0 0.3---- 0.0------------
1994-06-30 16.7 24.3 12.8- 92.0- 6.0 0.0---- 1.3------------
1994-06-29 25.1 31.4 18.7- 74.8- 6.0 0.0---- 11.4------------
1994-06-28 21.5 28.6 15.7- 83.8- 4.0 0.0---- 0.0------------
1994-06-27 22.2 28.7 13.7- 78.8- 3.7 0.0---- 0.0------------
1994-06-26 21.7 27.4 14.7- 62.8- 3.7 0.3---- 0.0------------
1994-06-25 16.0 25.2 4.1- 46.5- 0.0 0.0---- 0.0------------
1994-06-24 12.9 18.5 3.5- 52.8- 0.0 0.0---- 0.0------------
1994-06-23 13.5 18.5 10.1- 63.5- 2.7 2.7---- 0.0------------
1994-06-22 17.7 22.0 12.7- 77.5- 5.7 0.0---- 0.0------------
1994-06-21 14.7 25.1 7.0- 78.0- 4.7 0.0---- 0.0------------
1994-06-20 13.3 19.6 11.7- 88.0- 6.3 0.0---- 0.0------------
1994-06-19 17.2 23.1 7.8- 67.8- 4.0 0.0---- 0.0------------
1994-06-18 11.9 17.0 2.8- 76.0- 6.0 2.3---- 2.4------------
1994-06-17 8.1 10.9 4.8- 77.8- 6.0 0.0---- 0.0------------
1994-06-16 8.4 11.4 5.2- 88.0- 6.7 0.0---- 5.9------------
311.6 ms

 

Źródłem pochodzenia danych jest Instytut Meteorologii i Gospodarki Wodnej – Państwowy Instytut Badawczy. Dane Instytutu Meteorologii i Gospodarki Wodnej – Państwowego Instytutu Badawczego zostały przetworzone.

Dane źródłowe można odnaleźć na stronie https://dane.imgw.pl